sensor_id;sensor_type;location;lat;lon;timestamp;temperature;humidity
59857;DHT22;45733;52.668;6.860;2023-01-29T00:00:50;3.10;99.90
59857;DHT22;45733;52.668;6.860;2023-01-29T00:03:21;3.10;99.90
59857;DHT22;45733;52.668;6.860;2023-01-29T00:05:51;3.10;99.90
59857;DHT22;45733;52.668;6.860;2023-01-29T00:08:17;3.10;99.90
59857;DHT22;45733;52.668;6.860;2023-01-29T00:10:46;3.10;99.90
59857;DHT22;45733;52.668;6.860;2023-01-29T00:13:19;3.10;99.90
59857;DHT22;45733;52.668;6.860;2023-01-29T00:16:20;3.20;99.90
59857;DHT22;45733;52.668;6.860;2023-01-29T00:19:12;3.10;99.90
59857;DHT22;45733;52.668;6.860;2023-01-29T00:21:50;3.10;99.90
59857;DHT22;45733;52.668;6.860;2023-01-29T00:24:35;3.10;99.90
59857;DHT22;45733;52.668;6.860;2023-01-29T00:27:06;3.10;99.90
59857;DHT22;45733;52.668;6.860;2023-01-29T00:30:11;3.10;99.90
59857;DHT22;45733;52.668;6.860;2023-01-29T00:32:59;3.10;99.90
59857;DHT22;45733;52.668;6.860;2023-01-29T00:35:44;3.10;99.90
59857;DHT22;45733;52.668;6.860;2023-01-29T00:38:26;3.10;99.90
59857;DHT22;45733;52.668;6.860;2023-01-29T00:41:39;3.10;99.90
59857;DHT22;45733;52.668;6.860;2023-01-29T00:44:24;3.10;99.90
59857;DHT22;45733;52.668;6.860;2023-01-29T00:47:09;3.10;99.90
59857;DHT22;45733;52.668;6.860;2023-01-29T00:49:56;3.20;99.90
59857;DHT22;45733;52.668;6.860;2023-01-29T00:52:38;3.20;99.90
59857;DHT22;45733;52.668;6.860;2023-01-29T00:55:35;3.20;99.90
59857;DHT22;45733;52.668;6.860;2023-01-29T00:58:29;3.10;99.90
59857;DHT22;45733;52.668;6.860;2023-01-29T01:01:08;3.20;99.90
59857;DHT22;45733;52.668;6.860;2023-01-29T01:07:59;3.20;99.90
59857;DHT22;45733;52.668;6.860;2023-01-29T01:18:12;3.20;99.90
59857;DHT22;45733;52.668;6.860;2023-01-29T01:21:04;3.30;99.90
59857;DHT22;45733;52.668;6.860;2023-01-29T01:23:49;3.20;99.90
59857;DHT22;45733;52.668;6.860;2023-01-29T01:36:35;3.20;99.90
59857;DHT22;45733;52.668;6.860;2023-01-29T01:39:27;3.20;99.90
59857;DHT22;45733;52.668;6.860;2023-01-29T01:41:55;3.20;99.90
59857;DHT22;45733;52.668;6.860;2023-01-29T01:48:24;3.20;99.90
59857;DHT22;45733;52.668;6.860;2023-01-29T01:51:52;3.20;99.90
59857;DHT22;45733;52.668;6.860;2023-01-29T01:54:59;3.20;99.90
59857;DHT22;45733;52.668;6.860;2023-01-29T01:57:51;3.20;99.90
59857;DHT22;45733;52.668;6.860;2023-01-29T02:03:44;3.20;99.90
59857;DHT22;45733;52.668;6.860;2023-01-29T02:06:55;3.20;99.90
59857;DHT22;45733;52.668;6.860;2023-01-29T02:09:51;3.20;99.90
59857;DHT22;45733;52.668;6.860;2023-01-29T02:12:19;3.20;99.90
59857;DHT22;45733;52.668;6.860;2023-01-29T02:18:18;3.20;99.90
59857;DHT22;45733;52.668;6.860;2023-01-29T02:37:38;3.20;99.90
59857;DHT22;45733;52.668;6.860;2023-01-29T02:44:38;3.30;99.90
59857;DHT22;45733;52.668;6.860;2023-01-29T02:54:05;3.20;99.90
59857;DHT22;45733;52.668;6.860;2023-01-29T02:57:00;3.20;99.90
59857;DHT22;45733;52.668;6.860;2023-01-29T02:59:33;3.10;99.90
59857;DHT22;45733;52.668;6.860;2023-01-29T03:02:10;3.20;99.90
59857;DHT22;45733;52.668;6.860;2023-01-29T03:08:31;3.20;99.90
59857;DHT22;45733;52.668;6.860;2023-01-29T03:15:46;3.20;99.90
59857;DHT22;45733;52.668;6.860;2023-01-29T03:22:03;3.20;99.90
59857;DHT22;45733;52.668;6.860;2023-01-29T03:28:35;3.20;99.90
59857;DHT22;45733;52.668;6.860;2023-01-29T03:35:11;3.30;99.90
59857;DHT22;45733;52.668;6.860;2023-01-29T03:38:00;3.30;99.90
59857;DHT22;45733;52.668;6.860;2023-01-29T03:58:15;3.20;99.90
59857;DHT22;45733;52.668;6.860;2023-01-29T04:01:27;3.30;99.90
59857;DHT22;45733;52.668;6.860;2023-01-29T04:04:12;3.20;99.90
59857;DHT22;45733;52.668;6.860;2023-01-29T04:06:40;3.30;99.90
59857;DHT22;45733;52.668;6.860;2023-01-29T04:09:21;3.30;99.90
59857;DHT22;45733;52.668;6.860;2023-01-29T04:12:33;3.30;99.90
59857;DHT22;45733;52.668;6.860;2023-01-29T04:15:56;3.40;99.90
59857;DHT22;45733;52.668;6.860;2023-01-29T04:19:18;3.30;99.90
59857;DHT22;45733;52.668;6.860;2023-01-29T04:22:18;3.30;99.90
59857;DHT22;45733;52.668;6.860;2023-01-29T04:28:58;3.40;99.90
59857;DHT22;45733;52.668;6.860;2023-01-29T04:31:10;3.50;99.90
59857;DHT22;45733;52.668;6.860;2023-01-29T04:34:27;3.50;99.90
59857;DHT22;45733;52.668;6.860;2023-01-29T04:37:04;3.50;99.90
59857;DHT22;45733;52.668;6.860;2023-01-29T04:43:54;3.60;99.90
59857;DHT22;45733;52.668;6.860;2023-01-29T04:50:19;3.50;99.90
59857;DHT22;45733;52.668;6.860;2023-01-29T04:53:04;3.50;99.90
59857;DHT22;45733;52.668;6.860;2023-01-29T05:02:18;3.60;99.90
59857;DHT22;45733;52.668;6.860;2023-01-29T05:07:38;3.60;99.90
59857;DHT22;45733;52.668;6.860;2023-01-29T05:10:29;3.60;99.90
59857;DHT22;45733;52.668;6.860;2023-01-29T05:13:28;3.60;99.90
59857;DHT22;45733;52.668;6.860;2023-01-29T05:16:25;3.60;99.90
59857;DHT22;45733;52.668;6.860;2023-01-29T05:22:40;3.70;99.90
59857;DHT22;45733;52.668;6.860;2023-01-29T05:25:29;3.60;99.90
59857;DHT22;45733;52.668;6.860;2023-01-29T05:28:13;3.70;99.90
59857;DHT22;45733;52.668;6.860;2023-01-29T05:31:09;3.70;99.90
59857;DHT22;45733;52.668;6.860;2023-01-29T05:33:44;3.70;99.90
59857;DHT22;45733;52.668;6.860;2023-01-29T05:36:47;3.70;99.90
59857;DHT22;45733;52.668;6.860;2023-01-29T05:39:18;3.60;99.90
59857;DHT22;45733;52.668;6.860;2023-01-29T05:41:47;3.60;99.90
59857;DHT22;45733;52.668;6.860;2023-01-29T05:44:31;3.60;99.90
59857;DHT22;45733;52.668;6.860;2023-01-29T05:47:04;3.60;99.90
59857;DHT22;45733;52.668;6.860;2023-01-29T05:52:39;3.60;99.90
59857;DHT22;45733;52.668;6.860;2023-01-29T05:55:09;3.60;99.90
59857;DHT22;45733;52.668;6.860;2023-01-29T05:57:42;3.60;99.90
59857;DHT22;45733;52.668;6.860;2023-01-29T06:00:11;3.60;99.90
59857;DHT22;45733;52.668;6.860;2023-01-29T06:02:53;3.60;99.90
59857;DHT22;45733;52.668;6.860;2023-01-29T06:05:19;3.60;99.90
59857;DHT22;45733;52.668;6.860;2023-01-29T06:07:45;3.60;99.90
59857;DHT22;45733;52.668;6.860;2023-01-29T06:10:19;3.60;99.90
59857;DHT22;45733;52.668;6.860;2023-01-29T06:12:54;3.60;99.90
59857;DHT22;45733;52.668;6.860;2023-01-29T06:15:20;3.60;99.90
59857;DHT22;45733;52.668;6.860;2023-01-29T06:18:09;3.60;99.90
59857;DHT22;45733;52.668;6.860;2023-01-29T06:20:36;3.50;99.90
59857;DHT22;45733;52.668;6.860;2023-01-29T06:23:10;3.50;99.90
59857;DHT22;45733;52.668;6.860;2023-01-29T06:25:36;3.50;99.90
59857;DHT22;45733;52.668;6.860;2023-01-29T06:28:07;3.50;99.90
59857;DHT22;45733;52.668;6.860;2023-01-29T06:30:36;3.50;99.90
59857;DHT22;45733;52.668;6.860;2023-01-29T06:33:02;3.50;99.90
59857;DHT22;45733;52.668;6.860;2023-01-29T06:35:34;3.50;99.90
59857;DHT22;45733;52.668;6.860;2023-01-29T06:38:00;3.50;99.90
59857;DHT22;45733;52.668;6.860;2023-01-29T06:40:37;3.50;99.90
59857;DHT22;45733;52.668;6.860;2023-01-29T06:43:06;3.50;99.90
59857;DHT22;45733;52.668;6.860;2023-01-29T06:45:44;3.50;99.90
59857;DHT22;45733;52.668;6.860;2023-01-29T06:48:13;3.50;99.90
59857;DHT22;45733;52.668;6.860;2023-01-29T06:50:42;3.50;99.90
59857;DHT22;45733;52.668;6.860;2023-01-29T06:53:11;3.50;99.90
59857;DHT22;45733;52.668;6.860;2023-01-29T06:55:52;3.50;99.90
59857;DHT22;45733;52.668;6.860;2023-01-29T06:58:21;3.50;99.90
59857;DHT22;45733;52.668;6.860;2023-01-29T07:00:48;3.40;99.90
59857;DHT22;45733;52.668;6.860;2023-01-29T07:03:14;3.50;99.90
59857;DHT22;45733;52.668;6.860;2023-01-29T07:05:40;3.50;99.90
59857;DHT22;45733;52.668;6.860;2023-01-29T07:08:06;3.50;99.90
59857;DHT22;45733;52.668;6.860;2023-01-29T07:10:35;3.40;99.90
59857;DHT22;45733;52.668;6.860;2023-01-29T07:13:01;3.50;99.90
59857;DHT22;45733;52.668;6.860;2023-01-29T07:15:30;3.50;99.90
59857;DHT22;45733;52.668;6.860;2023-01-29T07:18:00;3.50;99.90
59857;DHT22;45733;52.668;6.860;2023-01-29T07:20:28;3.40;99.90
59857;DHT22;45733;52.668;6.860;2023-01-29T07:22:56;3.40;99.90
59857;DHT22;45733;52.668;6.860;2023-01-29T07:25:23;3.50;99.90
59857;DHT22;45733;52.668;6.860;2023-01-29T07:27:53;3.50;99.90
59857;DHT22;45733;52.668;6.860;2023-01-29T07:30:21;3.40;99.90
59857;DHT22;45733;52.668;6.860;2023-01-29T07:32:47;3.40;99.90
59857;DHT22;45733;52.668;6.860;2023-01-29T07:35:17;3.40;99.90
59857;DHT22;45733;52.668;6.860;2023-01-29T07:37:49;3.40;99.90
59857;DHT22;45733;52.668;6.860;2023-01-29T07:40:15;3.50;99.90
59857;DHT22;45733;52.668;6.860;2023-01-29T07:42:41;3.40;99.90
59857;DHT22;45733;52.668;6.860;2023-01-29T07:45:11;3.40;99.90
59857;DHT22;45733;52.668;6.860;2023-01-29T07:47:56;3.50;99.90
59857;DHT22;45733;52.668;6.860;2023-01-29T07:50:26;3.50;99.90
59857;DHT22;45733;52.668;6.860;2023-01-29T07:53:01;3.50;99.90
59857;DHT22;45733;52.668;6.860;2023-01-29T07:55:42;3.40;99.90
59857;DHT22;45733;52.668;6.860;2023-01-29T07:58:10;3.50;99.90
59857;DHT22;45733;52.668;6.860;2023-01-29T08:00:36;3.50;99.90
59857;DHT22;45733;52.668;6.860;2023-01-29T08:03:22;3.50;99.90
59857;DHT22;45733;52.668;6.860;2023-01-29T08:05:51;3.50;99.90
59857;DHT22;45733;52.668;6.860;2023-01-29T08:08:45;3.50;99.90
59857;DHT22;45733;52.668;6.860;2023-01-29T08:11:11;3.50;99.90
59857;DHT22;45733;52.668;6.860;2023-01-29T08:13:40;3.50;99.90
59857;DHT22;45733;52.668;6.860;2023-01-29T08:16:07;3.50;99.90
59857;DHT22;45733;52.668;6.860;2023-01-29T08:18:37;3.40;99.90
59857;DHT22;45733;52.668;6.860;2023-01-29T08:21:18;3.40;99.90
59857;DHT22;45733;52.668;6.860;2023-01-29T08:23:47;3.50;99.90
59857;DHT22;45733;52.668;6.860;2023-01-29T08:26:16;3.50;99.90
59857;DHT22;45733;52.668;6.860;2023-01-29T08:28:42;3.50;99.90
59857;DHT22;45733;52.668;6.860;2023-01-29T08:31:18;3.60;99.90
59857;DHT22;45733;52.668;6.860;2023-01-29T08:34:07;3.60;99.90
59857;DHT22;45733;52.668;6.860;2023-01-29T08:36:44;3.60;99.90
59857;DHT22;45733;52.668;6.860;2023-01-29T08:39:12;3.50;99.90
59857;DHT22;45733;52.668;6.860;2023-01-29T08:41:47;3.60;99.90
59857;DHT22;45733;52.668;6.860;2023-01-29T08:44:16;3.60;99.90
59857;DHT22;45733;52.668;6.860;2023-01-29T08:46:42;3.50;99.90
59857;DHT22;45733;52.668;6.860;2023-01-29T08:49:11;3.60;99.90
59857;DHT22;45733;52.668;6.860;2023-01-29T08:51:37;3.60;99.90
59857;DHT22;45733;52.668;6.860;2023-01-29T08:54:03;3.60;99.90
59857;DHT22;45733;52.668;6.860;2023-01-29T08:56:40;3.60;99.90
59857;DHT22;45733;52.668;6.860;2023-01-29T08:59:06;3.70;99.90
59857;DHT22;45733;52.668;6.860;2023-01-29T09:01:35;3.70;99.90
59857;DHT22;45733;52.668;6.860;2023-01-29T09:04:15;3.70;99.90
59857;DHT22;45733;52.668;6.860;2023-01-29T09:06:50;3.70;99.90
59857;DHT22;45733;52.668;6.860;2023-01-29T09:12:37;3.70;99.90
59857;DHT22;45733;52.668;6.860;2023-01-29T09:15:06;3.70;99.90
59857;DHT22;45733;52.668;6.860;2023-01-29T09:17:32;3.70;99.90
59857;DHT22;45733;52.668;6.860;2023-01-29T09:19:59;3.70;99.90
59857;DHT22;45733;52.668;6.860;2023-01-29T09:22:26;3.70;99.90
59857;DHT22;45733;52.668;6.860;2023-01-29T09:24:52;3.70;99.90
59857;DHT22;45733;52.668;6.860;2023-01-29T09:27:20;3.70;99.90
59857;DHT22;45733;52.668;6.860;2023-01-29T09:29:47;3.70;99.90
59857;DHT22;45733;52.668;6.860;2023-01-29T09:35:54;3.70;99.90
59857;DHT22;45733;52.668;6.860;2023-01-29T09:38:20;3.80;99.90
59857;DHT22;45733;52.668;6.860;2023-01-29T09:41:13;3.90;99.90
59857;DHT22;45733;52.668;6.860;2023-01-29T09:46:32;3.90;99.90
59857;DHT22;45733;52.668;6.860;2023-01-29T09:49:45;3.90;99.90
59857;DHT22;45733;52.668;6.860;2023-01-29T09:52:07;3.90;99.90
59857;DHT22;45733;52.668;6.860;2023-01-29T09:54:50;4.00;99.90
59857;DHT22;45733;52.668;6.860;2023-01-29T10:10:16;4.20;99.90
59857;DHT22;45733;52.668;6.860;2023-01-29T10:12:51;4.20;99.90
59857;DHT22;45733;52.668;6.860;2023-01-29T10:15:41;4.30;99.90
59857;DHT22;45733;52.668;6.860;2023-01-29T10:27:37;4.50;99.90
59857;DHT22;45733;52.668;6.860;2023-01-29T10:30:20;4.70;99.90
59857;DHT22;45733;52.668;6.860;2023-01-29T10:32:47;4.70;99.90
59857;DHT22;45733;52.668;6.860;2023-01-29T10:35:43;4.80;99.90
59857;DHT22;45733;52.668;6.860;2023-01-29T10:47:35;4.90;99.90
59857;DHT22;45733;52.668;6.860;2023-01-29T10:59:45;5.00;99.90
59857;DHT22;45733;52.668;6.860;2023-01-29T11:02:22;5.10;99.90
59857;DHT22;45733;52.668;6.860;2023-01-29T11:04:48;5.00;99.90
59857;DHT22;45733;52.668;6.860;2023-01-29T11:07:17;5.00;99.90
59857;DHT22;45733;52.668;6.860;2023-01-29T11:09:59;5.00;99.90
59857;DHT22;45733;52.668;6.860;2023-01-29T11:12:30;5.00;99.90
59857;DHT22;45733;52.668;6.860;2023-01-29T11:15:28;5.00;99.90
59857;DHT22;45733;52.668;6.860;2023-01-29T11:18:12;5.00;99.90
59857;DHT22;45733;52.668;6.860;2023-01-29T11:20:45;5.00;99.90
59857;DHT22;45733;52.668;6.860;2023-01-29T11:23:31;5.10;99.90
59857;DHT22;45733;52.668;6.860;2023-01-29T11:26:10;5.10;99.90
59857;DHT22;45733;52.668;6.860;2023-01-29T11:28:44;5.10;99.90
59857;DHT22;45733;52.668;6.860;2023-01-29T11:31:26;5.20;99.90
59857;DHT22;45733;52.668;6.860;2023-01-29T11:34:24;5.10;99.90
59857;DHT22;45733;52.668;6.860;2023-01-29T11:37:01;5.20;99.90
59857;DHT22;45733;52.668;6.860;2023-01-29T11:39:32;5.10;99.90
59857;DHT22;45733;52.668;6.860;2023-01-29T11:42:01;5.10;99.90
59857;DHT22;45733;52.668;6.860;2023-01-29T11:47:27;5.20;99.90
59857;DHT22;45733;52.668;6.860;2023-01-29T11:49:55;5.00;99.90
59857;DHT22;45733;52.668;6.860;2023-01-29T11:52:39;5.00;99.90
59857;DHT22;45733;52.668;6.860;2023-01-29T11:55:24;4.90;99.90
59857;DHT22;45733;52.668;6.860;2023-01-29T11:58:11;4.90;99.90
59857;DHT22;45733;52.668;6.860;2023-01-29T12:00:40;4.80;99.90
59857;DHT22;45733;52.668;6.860;2023-01-29T12:03:27;4.70;99.90
59857;DHT22;45733;52.668;6.860;2023-01-29T12:06:06;4.70;99.90
59857;DHT22;45733;52.668;6.860;2023-01-29T12:08:40;4.70;99.90
59857;DHT22;45733;52.668;6.860;2023-01-29T12:11:15;4.70;99.90
59857;DHT22;45733;52.668;6.860;2023-01-29T12:13:56;4.70;99.90
59857;DHT22;45733;52.668;6.860;2023-01-29T12:16:35;4.70;99.90
59857;DHT22;45733;52.668;6.860;2023-01-29T12:19:26;4.70;99.90
59857;DHT22;45733;52.668;6.860;2023-01-29T12:22:26;4.70;99.90
59857;DHT22;45733;52.668;6.860;2023-01-29T12:25:25;4.60;99.90
59857;DHT22;45733;52.668;6.860;2023-01-29T12:31:07;4.60;99.90
59857;DHT22;45733;52.668;6.860;2023-01-29T12:33:59;4.70;99.90
59857;DHT22;45733;52.668;6.860;2023-01-29T12:36:35;4.80;99.90
59857;DHT22;45733;52.668;6.860;2023-01-29T12:39:04;4.80;99.90
59857;DHT22;45733;52.668;6.860;2023-01-29T12:46:56;4.80;99.90
59857;DHT22;45733;52.668;6.860;2023-01-29T12:49:29;4.80;99.90
59857;DHT22;45733;52.668;6.860;2023-01-29T12:52:19;4.80;99.90
59857;DHT22;45733;52.668;6.860;2023-01-29T12:55:22;4.80;99.90
59857;DHT22;45733;52.668;6.860;2023-01-29T12:58:03;4.90;99.90
59857;DHT22;45733;52.668;6.860;2023-01-29T13:00:35;4.90;99.90
59857;DHT22;45733;52.668;6.860;2023-01-29T13:08:38;4.90;99.90
59857;DHT22;45733;52.668;6.860;2023-01-29T13:11:24;4.90;99.90
59857;DHT22;45733;52.668;6.860;2023-01-29T13:13:53;4.90;99.90
59857;DHT22;45733;52.668;6.860;2023-01-29T13:16:23;4.80;99.90
59857;DHT22;45733;52.668;6.860;2023-01-29T13:19:08;4.70;99.90
59857;DHT22;45733;52.668;6.860;2023-01-29T13:21:58;4.80;99.90
59857;DHT22;45733;52.668;6.860;2023-01-29T13:24:30;4.80;99.90
59857;DHT22;45733;52.668;6.860;2023-01-29T13:27:01;4.70;99.90
59857;DHT22;45733;52.668;6.860;2023-01-29T13:29:30;4.50;99.90
59857;DHT22;45733;52.668;6.860;2023-01-29T13:32:02;4.60;99.90
59857;DHT22;45733;52.668;6.860;2023-01-29T13:34:44;4.50;99.90
59857;DHT22;45733;52.668;6.860;2023-01-29T13:37:37;4.50;99.90
59857;DHT22;45733;52.668;6.860;2023-01-29T13:40:20;4.50;99.90
59857;DHT22;45733;52.668;6.860;2023-01-29T13:42:52;4.30;99.90
59857;DHT22;45733;52.668;6.860;2023-01-29T13:45:35;4.30;99.90
59857;DHT22;45733;52.668;6.860;2023-01-29T13:54:06;4.30;99.90
59857;DHT22;45733;52.668;6.860;2023-01-29T14:03:31;4.20;99.90
59857;DHT22;45733;52.668;6.860;2023-01-29T14:06:02;4.20;99.90
59857;DHT22;45733;52.668;6.860;2023-01-29T14:08:38;4.30;99.90
59857;DHT22;45733;52.668;6.860;2023-01-29T14:14:00;4.40;99.90
59857;DHT22;45733;52.668;6.860;2023-01-29T14:16:33;4.50;99.90
59857;DHT22;45733;52.668;6.860;2023-01-29T14:19:19;4.60;99.90
59857;DHT22;45733;52.668;6.860;2023-01-29T14:21:51;4.60;99.90
59857;DHT22;45733;52.668;6.860;2023-01-29T14:24:20;4.70;99.90
59857;DHT22;45733;52.668;6.860;2023-01-29T14:26:56;4.50;99.90
59857;DHT22;45733;52.668;6.860;2023-01-29T14:29:29;4.50;99.90
59857;DHT22;45733;52.668;6.860;2023-01-29T14:34:35;4.60;99.90
59857;DHT22;45733;52.668;6.860;2023-01-29T14:40:23;4.70;99.90
59857;DHT22;45733;52.668;6.860;2023-01-29T14:45:38;4.60;99.90
59857;DHT22;45733;52.668;6.860;2023-01-29T14:51:08;4.60;99.90
59857;DHT22;45733;52.668;6.860;2023-01-29T14:53:50;4.60;99.90
59857;DHT22;45733;52.668;6.860;2023-01-29T14:56:35;4.50;99.90
59857;DHT22;45733;52.668;6.860;2023-01-29T14:59:21;4.50;99.90
59857;DHT22;45733;52.668;6.860;2023-01-29T15:02:21;4.60;99.90
59857;DHT22;45733;52.668;6.860;2023-01-29T15:05:03;4.60;99.90
59857;DHT22;45733;52.668;6.860;2023-01-29T15:13:14;4.50;99.90
59857;DHT22;45733;52.668;6.860;2023-01-29T15:16:05;4.40;99.90
59857;DHT22;45733;52.668;6.860;2023-01-29T15:18:39;4.50;99.90
59857;DHT22;45733;52.668;6.860;2023-01-29T15:21:14;4.40;99.90
59857;DHT22;45733;52.668;6.860;2023-01-29T15:23:41;4.40;99.90
59857;DHT22;45733;52.668;6.860;2023-01-29T15:26:22;4.40;99.90
59857;DHT22;45733;52.668;6.860;2023-01-29T15:29:01;4.40;99.90
59857;DHT22;45733;52.668;6.860;2023-01-29T15:31:28;4.40;99.90
59857;DHT22;45733;52.668;6.860;2023-01-29T15:34:09;4.40;99.90
59857;DHT22;45733;52.668;6.860;2023-01-29T15:36:39;4.40;99.90
59857;DHT22;45733;52.668;6.860;2023-01-29T15:41:37;4.40;99.90
59857;DHT22;45733;52.668;6.860;2023-01-29T15:44:14;4.40;99.90
59857;DHT22;45733;52.668;6.860;2023-01-29T15:46:44;4.40;99.90
59857;DHT22;45733;52.668;6.860;2023-01-29T15:49:30;4.40;99.90
59857;DHT22;45733;52.668;6.860;2023-01-29T15:52:25;4.40;99.90
59857;DHT22;45733;52.668;6.860;2023-01-29T15:55:00;4.40;99.90
59857;DHT22;45733;52.668;6.860;2023-01-29T15:57:32;4.40;99.90
59857;DHT22;45733;52.668;6.860;2023-01-29T16:00:03;4.40;99.90
59857;DHT22;45733;52.668;6.860;2023-01-29T16:02:40;4.40;99.90
59857;DHT22;45733;52.668;6.860;2023-01-29T16:05:17;4.40;99.90
59857;DHT22;45733;52.668;6.860;2023-01-29T16:07:48;4.30;99.90
59857;DHT22;45733;52.668;6.860;2023-01-29T16:10:33;4.40;99.90
59857;DHT22;45733;52.668;6.860;2023-01-29T16:13:42;4.40;99.90
59857;DHT22;45733;52.668;6.860;2023-01-29T16:16:27;4.30;99.90
59857;DHT22;45733;52.668;6.860;2023-01-29T16:18:52;4.30;99.90
59857;DHT22;45733;52.668;6.860;2023-01-29T16:21:25;4.30;99.90
59857;DHT22;45733;52.668;6.860;2023-01-29T16:24:15;4.30;99.90
59857;DHT22;45733;52.668;6.860;2023-01-29T16:26:52;4.40;99.90
59857;DHT22;45733;52.668;6.860;2023-01-29T16:29:30;4.30;99.90
59857;DHT22;45733;52.668;6.860;2023-01-29T16:31:59;4.40;99.90
59857;DHT22;45733;52.668;6.860;2023-01-29T16:34:40;4.30;99.90
59857;DHT22;45733;52.668;6.860;2023-01-29T16:37:20;4.30;99.90
59857;DHT22;45733;52.668;6.860;2023-01-29T16:39:50;4.30;99.90
59857;DHT22;45733;52.668;6.860;2023-01-29T16:44:58;4.30;99.90
59857;DHT22;45733;52.668;6.860;2023-01-29T16:47:30;4.20;99.90
59857;DHT22;45733;52.668;6.860;2023-01-29T16:50:01;4.20;99.90
59857;DHT22;45733;52.668;6.860;2023-01-29T16:52:32;4.20;99.90
59857;DHT22;45733;52.668;6.860;2023-01-29T16:55:18;4.20;99.90
59857;DHT22;45733;52.668;6.860;2023-01-29T16:57:59;4.20;99.90
59857;DHT22;45733;52.668;6.860;2023-01-29T17:00:28;4.10;99.90
59857;DHT22;45733;52.668;6.860;2023-01-29T17:03:04;4.20;99.90
59857;DHT22;45733;52.668;6.860;2023-01-29T17:05:34;4.20;99.90
59857;DHT22;45733;52.668;6.860;2023-01-29T17:08:02;4.10;99.90
59857;DHT22;45733;52.668;6.860;2023-01-29T17:10:32;4.10;99.90
59857;DHT22;45733;52.668;6.860;2023-01-29T17:19:19;4.20;99.90
59857;DHT22;45733;52.668;6.860;2023-01-29T17:21:56;4.10;99.90
59857;DHT22;45733;52.668;6.860;2023-01-29T17:24:24;4.10;99.90
59857;DHT22;45733;52.668;6.860;2023-01-29T17:26:50;4.10;99.90
59857;DHT22;45733;52.668;6.860;2023-01-29T17:29:19;4.10;99.90
59857;DHT22;45733;52.668;6.860;2023-01-29T17:31:45;4.10;99.90
59857;DHT22;45733;52.668;6.860;2023-01-29T17:34:12;4.10;99.90
59857;DHT22;45733;52.668;6.860;2023-01-29T17:37:14;4.20;99.90
59857;DHT22;45733;52.668;6.860;2023-01-29T17:39:43;4.10;99.90
59857;DHT22;45733;52.668;6.860;2023-01-29T17:42:13;4.10;99.90
59857;DHT22;45733;52.668;6.860;2023-01-29T17:44:45;4.00;99.90
59857;DHT22;45733;52.668;6.860;2023-01-29T17:47:14;4.10;99.90
59857;DHT22;45733;52.668;6.860;2023-01-29T17:49:41;4.00;99.90
59857;DHT22;45733;52.668;6.860;2023-01-29T17:52:10;4.00;99.90
59857;DHT22;45733;52.668;6.860;2023-01-29T17:54:48;4.10;99.90
59857;DHT22;45733;52.668;6.860;2023-01-29T17:57:14;4.10;99.90
59857;DHT22;45733;52.668;6.860;2023-01-29T17:59:52;4.00;99.90
59857;DHT22;45733;52.668;6.860;2023-01-29T18:02:22;4.00;99.90
59857;DHT22;45733;52.668;6.860;2023-01-29T18:04:48;4.10;99.90
59857;DHT22;45733;52.668;6.860;2023-01-29T18:07:21;4.00;99.90
59857;DHT22;45733;52.668;6.860;2023-01-29T18:09:47;4.00;99.90
59857;DHT22;45733;52.668;6.860;2023-01-29T18:12:16;4.00;99.90
59857;DHT22;45733;52.668;6.860;2023-01-29T18:14:42;4.00;99.90
59857;DHT22;45733;52.668;6.860;2023-01-29T18:17:08;4.10;99.90
59857;DHT22;45733;52.668;6.860;2023-01-29T18:19:34;4.10;99.90
59857;DHT22;45733;52.668;6.860;2023-01-29T18:22:03;4.10;99.90
59857;DHT22;45733;52.668;6.860;2023-01-29T18:24:35;4.10;99.90
59857;DHT22;45733;52.668;6.860;2023-01-29T18:27:13;4.10;99.90
59857;DHT22;45733;52.668;6.860;2023-01-29T18:29:39;4.10;99.90
59857;DHT22;45733;52.668;6.860;2023-01-29T18:32:08;4.10;99.90
59857;DHT22;45733;52.668;6.860;2023-01-29T18:34:37;4.10;99.90
59857;DHT22;45733;52.668;6.860;2023-01-29T18:37:06;4.10;99.90
59857;DHT22;45733;52.668;6.860;2023-01-29T18:39:32;4.10;99.90
59857;DHT22;45733;52.668;6.860;2023-01-29T18:41:58;4.20;99.90
59857;DHT22;45733;52.668;6.860;2023-01-29T18:44:24;4.20;99.90
59857;DHT22;45733;52.668;6.860;2023-01-29T18:46:50;4.20;99.90
59857;DHT22;45733;52.668;6.860;2023-01-29T18:49:16;4.20;99.90
59857;DHT22;45733;52.668;6.860;2023-01-29T18:51:47;4.20;99.90
59857;DHT22;45733;52.668;6.860;2023-01-29T18:54:13;4.20;99.90
59857;DHT22;45733;52.668;6.860;2023-01-29T18:56:45;4.20;99.90
59857;DHT22;45733;52.668;6.860;2023-01-29T18:59:32;4.20;99.90
59857;DHT22;45733;52.668;6.860;2023-01-29T19:01:58;4.30;99.90
59857;DHT22;45733;52.668;6.860;2023-01-29T19:04:27;4.30;99.90
59857;DHT22;45733;52.668;6.860;2023-01-29T19:06:53;4.30;99.90
59857;DHT22;45733;52.668;6.860;2023-01-29T19:09:19;4.30;99.90
59857;DHT22;45733;52.668;6.860;2023-01-29T19:11:45;4.40;99.90
59857;DHT22;45733;52.668;6.860;2023-01-29T19:14:11;4.40;99.90
59857;DHT22;45733;52.668;6.860;2023-01-29T19:16:37;4.30;99.90
59857;DHT22;45733;52.668;6.860;2023-01-29T19:19:14;4.40;99.90
59857;DHT22;45733;52.668;6.860;2023-01-29T19:21:40;4.40;99.90
59857;DHT22;45733;52.668;6.860;2023-01-29T19:24:06;4.40;99.90
59857;DHT22;45733;52.668;6.860;2023-01-29T19:26:35;4.40;99.90
59857;DHT22;45733;52.668;6.860;2023-01-29T19:29:10;4.40;99.90
59857;DHT22;45733;52.668;6.860;2023-01-29T19:31:53;4.40;99.90
59857;DHT22;45733;52.668;6.860;2023-01-29T19:34:19;4.40;99.90
59857;DHT22;45733;52.668;6.860;2023-01-29T19:36:48;4.50;99.90
59857;DHT22;45733;52.668;6.860;2023-01-29T19:39:14;4.40;99.90
59857;DHT22;45733;52.668;6.860;2023-01-29T19:41:41;4.40;99.90
59857;DHT22;45733;52.668;6.860;2023-01-29T19:44:10;4.50;99.90
59857;DHT22;45733;52.668;6.860;2023-01-29T19:46:36;4.40;99.90
59857;DHT22;45733;52.668;6.860;2023-01-29T19:49:09;4.40;99.90
59857;DHT22;45733;52.668;6.860;2023-01-29T19:51:38;4.40;99.90
59857;DHT22;45733;52.668;6.860;2023-01-29T19:54:26;4.40;99.90
59857;DHT22;45733;52.668;6.860;2023-01-29T19:57:04;4.50;99.90
59857;DHT22;45733;52.668;6.860;2023-01-29T19:59:40;4.40;99.90
59857;DHT22;45733;52.668;6.860;2023-01-29T20:02:08;4.40;99.90
59857;DHT22;45733;52.668;6.860;2023-01-29T20:04:35;4.50;99.90
59857;DHT22;45733;52.668;6.860;2023-01-29T20:07:01;4.50;99.90
59857;DHT22;45733;52.668;6.860;2023-01-29T20:09:27;4.40;99.90
59857;DHT22;45733;52.668;6.860;2023-01-29T20:11:55;4.50;99.90
59857;DHT22;45733;52.668;6.860;2023-01-29T20:14:25;4.40;99.90
59857;DHT22;45733;52.668;6.860;2023-01-29T20:16:54;4.40;99.90
59857;DHT22;45733;52.668;6.860;2023-01-29T20:19:22;4.50;99.90
59857;DHT22;45733;52.668;6.860;2023-01-29T20:21:51;4.50;99.90
59857;DHT22;45733;52.668;6.860;2023-01-29T20:24:16;4.40;99.90
59857;DHT22;45733;52.668;6.860;2023-01-29T20:26:45;4.50;99.90
59857;DHT22;45733;52.668;6.860;2023-01-29T20:29:14;4.40;99.90
59857;DHT22;45733;52.668;6.860;2023-01-29T20:31:40;4.50;99.90
59857;DHT22;45733;52.668;6.860;2023-01-29T20:34:27;4.40;99.90
59857;DHT22;45733;52.668;6.860;2023-01-29T20:36:59;4.50;99.90
59857;DHT22;45733;52.668;6.860;2023-01-29T20:39:35;4.50;99.90